createdAt,value
2022-08-28T00:03:09.568Z,99693.13
2022-08-28T00:08:15.087Z,99683.53
2022-08-28T00:13:22.116Z,99676.25
2022-08-28T00:18:26.603Z,99669.75
2022-08-28T00:23:42.460Z,99661.31
2022-08-28T00:28:45.883Z,99665.88
2022-08-28T00:33:50.964Z,99659.91
2022-08-28T00:38:53.759Z,99655.31
2022-08-28T00:44:28.200Z,99638.75
2022-08-28T00:49:36.088Z,99656.34
2022-08-28T00:55:06.077Z,99646.28
2022-08-28T01:00:16.598Z,99657.88
2022-08-28T01:05:20.530Z,99673.84
2022-08-28T01:10:26.683Z,99668.66
2022-08-28T01:15:33.807Z,99680.72
2022-08-28T01:20:42.853Z,99677.38
2022-08-28T01:25:45.836Z,99690.84
2022-08-28T01:30:49.613Z,99705.66
2022-08-28T01:35:53.959Z,99708.56
2022-08-28T01:40:58.248Z,99694.72
2022-08-28T01:46:05.906Z,99709.84
2022-08-28T01:51:10.703Z,99699.53
2022-08-28T01:56:16.212Z,99701.59
2022-08-28T02:01:21.925Z,99712.91
2022-08-28T02:06:25.816Z,99709.09
2022-08-28T02:11:32.950Z,99690.91
2022-08-28T02:16:35.951Z,99684.06
2022-08-28T02:21:38.938Z,99682.81
2022-08-28T02:26:41.732Z,99667.25
2022-08-28T02:31:44.484Z,99652.28
2022-08-28T02:36:47.968Z,99670.56
2022-08-28T02:41:50.995Z,99661.34
2022-08-28T02:46:54.039Z,99664.53
2022-08-28T02:51:58.930Z,99665.78
2022-08-28T02:57:01.922Z,99660.03
2022-08-28T03:02:07.321Z,99674.06
2022-08-28T03:07:13.686Z,99711.78
2022-08-28T03:12:17.173Z,99710.06
2022-08-28T03:17:22.169Z,99702.22
2022-08-28T03:22:43.731Z,99685.78
2022-08-28T03:27:46.788Z,99698.75
2022-08-28T03:32:50.462Z,99707.03
2022-08-28T03:37:54.026Z,99710.06
2022-08-28T03:42:57.105Z,99715.81
2022-08-28T03:47:59.996Z,99724.25
2022-08-28T03:53:02.968Z,99715.75
2022-08-28T03:58:05.913Z,99710.00
2022-08-28T04:03:09.358Z,99721.59
2022-08-28T04:08:16.098Z,99722.19
2022-08-28T04:13:21.057Z,99716.09
2022-08-28T04:18:24.113Z,99713.59
2022-08-28T04:23:28.734Z,99719.25
2022-08-28T04:28:32.735Z,99712.47
2022-08-28T04:33:37.045Z,99711.78
2022-08-28T04:38:43.913Z,99715.56
2022-08-28T04:43:47.666Z,99712.03
2022-08-28T04:48:50.639Z,99715.47
2022-08-28T04:53:53.677Z,99736.31
2022-08-28T04:58:56.717Z,99733.38
2022-08-28T05:04:04.034Z,99746.94
2022-08-28T05:09:07.051Z,99736.69
2022-08-28T05:14:15.230Z,99744.81
2022-08-28T05:19:21.066Z,99749.41
2022-08-28T05:24:23.933Z,99750.75
2022-08-28T05:29:26.769Z,99754.00
2022-08-28T05:34:29.659Z,99761.31
2022-08-28T05:39:33.022Z,99753.72
2022-08-28T05:44:35.971Z,99748.78
2022-08-28T05:49:39.068Z,99738.38
2022-08-28T05:54:43.198Z,99734.00
2022-08-28T05:59:46.102Z,99720.63
2022-08-28T06:04:49.820Z,99715.69
2022-08-28T06:09:52.620Z,99718.03
2022-08-28T06:14:55.514Z,99731.78
2022-08-28T06:19:59.752Z,99729.75
2022-08-28T06:25:06.377Z,99717.13
2022-08-28T06:30:11.746Z,99722.94
2022-08-28T06:35:16.076Z,99722.41
2022-08-28T06:40:18.931Z,99729.72
2022-08-28T06:45:21.753Z,99730.25
2022-08-28T06:50:24.646Z,99737.34
2022-08-28T06:55:27.480Z,99735.75
2022-08-28T07:00:33.532Z,99744.81
2022-08-28T07:05:36.312Z,99753.53
2022-08-28T07:10:39.082Z,99747.56
2022-08-28T07:15:42.122Z,99758.44
2022-08-28T07:20:45.996Z,99764.38
2022-08-28T07:25:48.840Z,99759.75
2022-08-28T07:31:22.255Z,99771.44
2022-08-28T07:36:29.432Z,99769.88
2022-08-28T07:41:39.290Z,99764.81
2022-08-28T07:46:42.550Z,99764.09
2022-08-28T07:51:46.729Z,99764.78
2022-08-28T07:56:50.265Z,99759.06
2022-08-28T08:01:53.422Z,99760.09
2022-08-28T08:06:58.239Z,99762.53
2022-08-28T08:12:01.241Z,99759.25
2022-08-28T08:17:07.337Z,99765.16
2022-08-28T08:22:10.435Z,99767.03
2022-08-28T08:27:13.448Z,99765.88
2022-08-28T08:32:16.418Z,99776.97
2022-08-28T08:37:19.527Z,99777.25
2022-08-28T08:42:30.519Z,99783.00
2022-08-28T08:48:00.538Z,99792.00
2022-08-28T08:53:18.509Z,99790.09
2022-08-28T08:58:41.278Z,99781.66
2022-08-28T09:04:22.713Z,99784.59
2022-08-28T09:09:37.263Z,99789.38
2022-08-28T09:14:58.531Z,99782.22
2022-08-28T09:20:01.534Z,99778.88
2022-08-28T09:25:05.929Z,99777.66
2022-08-28T09:30:12.034Z,99774.00
2022-08-28T09:35:29.273Z,99777.34
2022-08-28T09:40:51.449Z,99777.66
2022-08-28T09:46:31.056Z,99777.25
2022-08-28T09:51:38.821Z,99768.88
2022-08-28T09:56:44.812Z,99769.53
2022-08-28T10:02:11.575Z,99773.56
2022-08-28T10:07:32.370Z,99772.75
2022-08-28T10:13:09.643Z,99761.19
2022-08-28T10:18:30.666Z,99759.59
2022-08-28T10:24:24.727Z,99744.03
2022-08-28T10:29:48.192Z,99750.28
2022-08-28T10:35:14.035Z,99753.88
2022-08-28T10:40:42.163Z,99745.91
2022-08-28T10:45:45.635Z,99750.34
2022-08-28T10:50:56.156Z,99747.06
2022-08-28T10:56:07.444Z,99736.50
2022-08-28T11:01:28.608Z,99728.56
2022-08-28T11:06:48.118Z,99734.72
2022-08-28T11:12:02.504Z,99733.41
2022-08-28T11:17:37.660Z,99731.97
2022-08-28T11:22:53.124Z,99740.75
2022-08-28T11:28:39.098Z,99735.09
2022-08-28T11:33:52.553Z,99732.03
2022-08-28T11:38:55.848Z,99733.53
2022-08-28T11:44:11.211Z,99730.44
2022-08-28T11:49:29.942Z,99737.16
2022-08-28T11:55:15.820Z,99729.00
2022-08-28T12:00:51.280Z,99722.50
2022-08-28T12:05:58.045Z,99729.22
2022-08-28T12:11:02.034Z,99730.91
2022-08-28T12:16:07.678Z,99724.66
2022-08-28T12:21:25.944Z,99722.63
2022-08-28T12:26:47.751Z,99720.84
2022-08-28T12:32:13.640Z,99723.66
2022-08-28T12:37:31.292Z,99717.63
2022-08-28T12:43:04.932Z,99713.09
2022-08-28T12:48:24.198Z,99717.03
2022-08-28T12:53:27.146Z,99710.31
2022-08-28T12:58:39.526Z,99706.00
2022-08-28T13:04:12.049Z,99707.28
2022-08-28T13:09:22.555Z,99696.34
2022-08-28T13:14:46.228Z,99690.66
2022-08-28T13:20:07.466Z,99691.53
2022-08-28T13:25:31.109Z,99693.53
2022-08-28T13:30:36.584Z,99690.88
2022-08-28T13:35:42.018Z,99680.84
2022-08-28T13:41:02.677Z,99685.63
2022-08-28T13:46:05.696Z,99676.66
2022-08-28T13:51:20.809Z,99676.75
2022-08-28T13:56:24.511Z,99671.91
2022-08-28T14:01:47.634Z,99664.59
2022-08-28T14:06:50.775Z,99663.69
2022-08-28T14:11:55.860Z,99662.16
2022-08-28T14:16:59.682Z,99656.34
2022-08-28T14:22:04.163Z,99656.91
2022-08-28T14:27:07.126Z,99655.19
2022-08-28T14:32:10.105Z,99658.72
2022-08-28T14:37:13.957Z,99664.03
2022-08-28T14:42:19.409Z,99670.75
2022-08-28T14:47:22.517Z,99663.63
2022-08-28T14:52:26.464Z,99661.66
2022-08-28T14:57:29.411Z,99670.47
2022-08-28T15:02:32.084Z,99665.47
2022-08-28T15:07:35.137Z,99664.03
2022-08-28T15:12:40.275Z,99668.13
2022-08-28T15:17:45.490Z,99665.97
2022-08-28T15:22:48.507Z,99666.91
2022-08-28T15:27:51.668Z,99673.75
2022-08-28T15:32:54.552Z,99667.47
2022-08-28T15:37:57.517Z,99672.34
2022-08-28T15:43:00.581Z,99682.94
2022-08-28T15:48:03.976Z,99687.69
2022-08-28T15:53:07.788Z,99687.41
2022-08-28T15:58:14.344Z,99686.59
2022-08-28T16:03:17.511Z,99679.16
2022-08-28T16:08:20.760Z,99679.75
2022-08-28T16:13:23.764Z,99667.84
2022-08-28T16:18:26.667Z,99668.78
2022-08-28T16:23:29.420Z,99662.06
2022-08-28T16:28:33.398Z,99673.97
2022-08-28T16:33:37.595Z,99663.47
2022-08-28T16:38:46.573Z,99666.72
2022-08-28T16:43:50.719Z,99685.16
2022-08-28T16:48:54.685Z,99699.00
2022-08-28T16:53:58.541Z,99702.44
2022-08-28T16:59:01.413Z,99704.78
2022-08-28T17:04:04.292Z,99726.16
2022-08-28T17:09:07.333Z,99733.34
2022-08-28T17:14:12.156Z,99737.25
2022-08-28T17:19:15.827Z,99740.03
2022-08-28T17:24:18.893Z,99742.84
2022-08-28T17:29:21.869Z,99741.25
2022-08-28T17:34:29.952Z,99744.56
2022-08-28T17:39:33.132Z,99748.97
2022-08-28T17:44:36.606Z,99763.69
2022-08-28T17:49:40.633Z,99761.81
2022-08-28T17:54:45.778Z,99776.72
2022-08-28T17:59:49.063Z,99788.69
2022-08-28T18:04:53.970Z,99788.97
2022-08-28T18:09:56.986Z,99795.47
2022-08-28T18:14:59.758Z,99795.47
2022-08-28T18:20:05.576Z,99794.41
2022-08-28T18:25:09.316Z,99803.88
2022-08-28T18:30:12.616Z,99806.63
2022-08-28T18:35:15.574Z,99805.22
2022-08-28T18:40:18.835Z,99800.59
2022-08-28T18:45:21.663Z,99801.09
2022-08-28T18:50:26.907Z,99797.56
2022-08-28T18:55:32.280Z,99806.03
2022-08-28T19:00:35.154Z,99817.16
2022-08-28T19:05:39.539Z,99825.31
2022-08-28T19:10:42.513Z,99820.44
2022-08-28T19:15:52.817Z,99818.28
2022-08-28T19:21:08.987Z,99827.22
2022-08-28T19:26:13.222Z,99829.66
2022-08-28T19:31:17.576Z,99831.31
2022-08-28T19:36:22.111Z,99836.94
2022-08-28T19:41:26.390Z,99847.50
2022-08-28T19:46:29.918Z,99850.16
2022-08-28T19:51:35.345Z,99852.56
2022-08-28T19:56:39.979Z,99859.00
2022-08-28T20:01:45.085Z,99873.31
2022-08-28T20:06:48.199Z,99872.41
2022-08-28T20:11:52.625Z,99873.69
2022-08-28T20:16:55.694Z,99885.25
2022-08-28T20:21:58.538Z,99875.97
2022-08-28T20:27:01.366Z,99877.50
2022-08-28T20:32:04.368Z,99875.84
2022-08-28T20:37:07.299Z,99880.94
2022-08-28T20:42:12.085Z,99883.59
2022-08-28T20:47:15.196Z,99891.16
2022-08-28T20:52:18.345Z,99886.19
2022-08-28T20:57:22.901Z,99884.22
2022-08-28T21:02:29.157Z,99887.94
2022-08-28T21:07:34.182Z,99875.44
2022-08-28T21:12:39.131Z,99887.28
2022-08-28T21:17:42.577Z,99880.69
2022-08-28T21:22:45.745Z,99896.88
2022-08-28T21:27:50.584Z,99896.00
2022-08-28T21:32:53.797Z,99894.06
2022-08-28T21:37:56.626Z,99896.13
2022-08-28T21:42:59.579Z,99905.88
2022-08-28T21:48:03.321Z,99912.94
2022-08-28T21:53:06.253Z,99915.34
2022-08-28T21:58:09.718Z,99913.31
2022-08-28T22:03:16.312Z,99928.94
2022-08-28T22:08:21.567Z,99920.19
2022-08-28T22:13:24.737Z,99909.78
2022-08-28T22:18:34.040Z,99903.69
2022-08-28T22:23:37.993Z,99897.34
2022-08-28T22:28:41.216Z,99908.09
2022-08-28T22:33:44.841Z,99912.00
2022-08-28T22:38:53.193Z,99909.75
2022-08-28T22:43:56.436Z,99910.81
2022-08-28T22:48:59.536Z,99908.03
2022-08-28T22:54:02.706Z,99909.09
2022-08-28T22:59:05.665Z,99917.69
2022-08-28T23:04:10.619Z,99917.84
2022-08-28T23:09:13.655Z,99916.72
2022-08-28T23:14:16.697Z,99920.25
2022-08-28T23:19:19.540Z,99928.34
2022-08-28T23:24:22.430Z,99921.78
2022-08-28T23:29:25.416Z,99925.72
2022-08-28T23:34:28.255Z,99930.75
2022-08-28T23:39:31.090Z,99932.28
2022-08-28T23:44:33.962Z,99941.47
2022-08-28T23:49:42.758Z,99935.50
2022-08-28T23:54:45.909Z,99930.00
2022-08-28T23:59:49.576Z,99935.31
